Time;durP1;ratioP1;P1;durP2;ratioP2;P2;SDS_P1;SDS_P2;PMS_P1;PMS_P2;Temp;Humidity;BMP_temperature;BMP_pressure;BME280_temperature;BME280_humidity;BME280_pressure;Samples;Min_cycle;Max_cycle;Signal;HPM_P1;HPM_P2
2023/06/04 04:30:23;;;;;;;9.98;5.50;;;;;;;10.62;77.22;96636.06;2081599;28;20566;-56
2023/06/04 04:31:28;;;;;;;10.57;5.10;;;;;;;10.70;77.15;96640.09;2081241;28;20292;-56
2023/06/04 07:35:43;;;;;;;4.72;2.88;;;;;;;19.12;49.18;96712.47;2076766;28;20569;-58
2023/06/04 07:36:45;;;;;;;9.95;2.90;;;;;;;18.85;49.70;96719.75;2072473;28;20262;-57
2023/06/04 07:37:48;;;;;;;13.85;2.90;;;;;;;19.52;49.23;96725.22;2073735;28;20255;-57
2023/06/04 07:41:31;;;;;;;8.55;3.58;;;;;;;18.28;51.83;96721.41;2084393;28;20550;-57
2023/06/04 07:43:44;;;;;;;10.60;2.60;;;;;;;18.46;51.74;96710.41;2093304;27;20580;-57
2023/06/04 07:45:54;;;;;;;7.70;2.33;;;;;;;19.69;50.47;96715.91;2073420;27;21054;-57
2023/06/04 07:48:05;;;;;;;4.55;2.42;;;;;;;20.26;49.03;96713.13;2084908;28;20552;-57
2023/06/04 07:58:04;;;;;;;9.35;3.08;;;;;;;20.04;50.33;96706.94;2085303;28;20557;-58
2023/06/04 08:00:17;;;;;;;8.68;2.78;;;;;;;19.73;50.45;96710.25;2084662;28;20560;-57
2023/06/04 08:02:28;;;;;;;8.90;3.00;;;;;;;19.30;49.99;96707.53;2101458;27;20564;-57
2023/06/04 08:04:40;;;;;;;8.57;3.50;;;;;;;18.73;51.39;96707.50;2091079;27;20560;-57
2023/06/04 08:06:52;;;;;;;8.63;3.35;;;;;;;19.09;51.21;96695.84;2092679;27;20554;-57
2023/06/04 08:09:09;;;;;;;7.22;2.60;;;;;;;18.62;51.53;96673.09;2098983;27;21029;-57
2023/06/04 08:11:24;;;;;;;5.53;2.70;;;;;;;18.82;51.63;96698.00;2101576;27;20564;-56
2023/06/04 08:13:39;;;;;;;9.32;3.05;;;;;;;19.60;51.00;96698.94;2083539;28;21085;-57
2023/06/04 08:15:52;;;;;;;6.07;3.15;;;;;;;19.79;50.75;96697.47;2081873;28;20604;-57
2023/06/04 08:18:04;;;;;;;6.10;2.42;;;;;;;20.68;49.63;96695.41;2083484;28;20563;-57
2023/06/04 08:20:20;;;;;;;5.93;2.42;;;;;;;20.80;48.56;96688.25;2095928;27;20560;-57
2023/06/04 08:22:34;;;;;;;8.73;3.13;;;;;;;21.43;48.40;96695.19;2092135;27;21084;-57
2023/06/04 08:24:57;;;;;;;4.78;2.50;;;;;;;21.74;47.91;96699.63;2116798;27;20510;-57
2023/06/04 08:27:22;;;;;;;11.00;2.60;;;;;;;22.02;46.57;96698.03;2090882;28;20509;-59
2023/06/04 08:29:40;;;;;;;6.50;2.58;;;;;;;21.80;47.13;96697.31;2088403;28;21098;-59
2023/06/04 08:32:09;;;;;;;8.25;2.40;;;;;;;20.49;47.96;96696.13;2083279;28;20553;-57
2023/06/04 08:33:10;;;;;;;6.18;2.55;;;;;;;21.03;47.96;96704.84;2080626;28;20861;-58
2023/06/04 08:35:27;;;;;;;6.53;2.33;;;;;;;21.81;46.01;96698.13;2094153;27;20569;-58
2023/06/04 08:36:29;;;;;;;4.82;2.70;;;;;;;22.15;45.72;96706.53;2085644;28;20201;-58
2023/06/04 08:38:50;;;;;;;10.35;2.50;;;;;;;22.53;44.99;96709.38;2081845;28;20569;-58
2023/06/04 08:39:53;;;;;;;6.93;2.40;;;;;;;22.54;43.89;96700.41;2079596;28;20280;-57
2023/06/04 08:42:30;;;;;;;4.35;2.10;;;;;;;22.75;44.42;96704.72;2115564;27;20554;-57
2023/06/04 08:43:33;;;;;;;7.10;2.70;;;;;;;22.31;46.07;96713.16;2113103;28;20258;-56
2023/06/04 08:46:11;;;;;;;8.55;2.67;;;;;;;22.81;43.76;96682.84;2083070;28;20580;-58
2023/06/04 08:47:15;;;;;;;4.65;2.60;;;;;;;23.23;44.15;96710.91;2081253;28;20221;-59
2023/06/04 08:48:18;;;;;;;6.28;2.50;;;;;;;23.39;43.91;96713.78;2086758;28;20193;-58
2023/06/04 08:49:22;;;;;;;5.57;1.90;;;;;;;23.41;43.15;96714.47;2088170;28;20253;-57
2023/06/04 08:51:53;;;;;;;5.35;2.35;;;;;;;23.79;42.67;96711.75;2084344;28;20564;-58
2023/06/04 08:52:55;;;;;;;3.60;2.40;;;;;;;22.94;42.55;96702.03;2082316;28;20291;-59
2023/06/04 08:53:58;;;;;;;10.95;2.28;;;;;;;23.17;43.44;96708.84;2078174;28;20699;-59
2023/06/04 08:55:00;;;;;;;4.97;2.10;;;;;;;23.53;43.51;96711.59;2078633;28;20208;-59
2023/06/04 08:56:02;;;;;;;11.30;7.88;;;;;;;23.75;42.58;96711.22;2074579;28;20241;-58
2023/06/04 08:57:04;;;;;;;51.25;31.33;;;;;;;24.03;42.06;96711.19;2073536;28;20284;-59
2023/06/04 08:58:08;;;;;;;13.95;5.57;;;;;;;23.49;42.85;96711.09;2072655;28;20224;-60
2023/06/04 08:59:10;;;;;;;15.45;7.43;;;;;;;23.69;42.31;96702.97;2072345;28;20606;-59
2023/06/04 09:01:54;;;;;;;4.93;2.83;;;;;;;23.86;41.49;96711.97;2101488;27;20556;-57
2023/06/04 09:02:56;;;;;;;8.40;2.35;;;;;;;23.78;41.98;96710.91;2106142;28;20205;-57
2023/06/04 09:03:59;;;;;;;7.95;2.20;;;;;;;23.71;42.03;96725.00;2104227;28;20595;-57
2023/06/04 09:05:02;;;;;;;4.18;2.33;;;;;;;23.93;42.61;96731.75;2095514;28;20211;-58
2023/06/04 09:06:05;;;;;;;5.70;2.40;;;;;;;23.86;42.72;96723.50;2078936;28;20775;-58
2023/06/04 09:07:08;;;;;;;5.63;2.33;;;;;;;23.79;42.66;96719.75;2080720;28;20205;-57
2023/06/04 09:08:12;;;;;;;9.93;2.70;;;;;;;23.94;43.27;96728.09;2078642;28;20247;-58
2023/06/04 09:09:15;;;;;;;6.68;3.25;;;;;;;23.86;42.67;96722.66;2080788;28;20254;-57
2023/06/04 09:10:21;;;;;;;6.95;2.38;;;;;;;23.86;42.14;96727.97;2077995;28;20192;-56
2023/06/04 09:11:28;;;;;;;9.55;3.65;;;;;;;24.01;43.25;96725.66;2073744;28;20653;-57
2023/06/04 09:12:32;;;;;;;7.97;2.53;;;;;;;23.99;42.80;96711.66;2069891;28;20198;-57
2023/06/04 09:13:35;;;;;;;6.75;2.60;;;;;;;24.31;42.29;96737.81;2071427;28;20190;-57
2023/06/04 09:14:37;;;;;;;7.45;2.50;;;;;;;24.08;42.77;96722.25;2071635;28;20255;-57
2023/06/04 09:15:38;;;;;;;5.28;2.22;;;;;;;24.29;42.88;96727.28;2070785;28;20244;-58
2023/06/04 09:16:44;;;;;;;10.82;2.80;;;;;;;23.91;41.61;96731.91;2072826;28;20418;-58
2023/06/04 09:17:45;;;;;;;8.25;2.25;;;;;;;24.28;43.01;96733.63;2075337;28;20197;-59
2023/06/04 09:18:47;;;;;;;8.05;2.97;;;;;;;24.43;42.31;96727.75;2073909;28;20820;-59
2023/06/04 09:19:50;;;;;;;6.80;2.78;;;;;;;24.46;42.01;96732.78;2074021;28;20457;-58
2023/06/04 09:21:10;;;;;;;6.43;2.47;;;;;;;24.34;42.22;96739.31;2073073;28;20316;-59
2023/06/04 09:22:11;;;;;;;11.45;2.70;;;;;;;24.73;40.95;96733.69;2069977;28;20313;-59
2023/06/04 09:23:14;;;;;;;4.00;2.42;;;;;;;24.53;41.30;96735.66;2071048;28;20202;-59
2023/06/04 09:24:17;;;;;;;6.55;2.95;;;;;;;24.45;42.86;96739.09;2072864;28;20190;-59
2023/06/04 09:25:27;;;;;;;6.07;2.30;;;;;;;24.17;41.52;96727.69;2071400;28;20962;-58
2023/06/04 09:26:28;;;;;;;8.07;2.70;;;;;;;24.49;41.42;96742.31;2070078;28;20209;-59
2023/06/04 09:27:37;;;;;;;5.53;2.58;;;;;;;24.42;40.21;96737.56;2070099;28;20288;-59
2023/06/04 09:28:43;;;;;;;5.78;2.40;;;;;;;24.13;41.22;96743.97;2074942;28;20292;-59
2023/06/04 09:29:53;;;;;;;8.82;2.25;;;;;;;24.26;41.65;96748.09;2074387;28;20276;-59
2023/06/04 09:30:55;;;;;;;4.90;2.78;;;;;;;23.83;42.12;96741.63;2071485;28;20217;-58
2023/06/04 09:31:59;;;;;;;5.25;2.47;;;;;;;23.91;40.58;96747.06;2076087;28;20193;-58
2023/06/04 09:33:12;;;;;;;3.95;2.35;;;;;;;22.89;42.76;96746.84;2074724;28;20198;-58
2023/06/04 09:34:14;;;;;;;6.43;2.30;;;;;;;23.58;41.91;96749.31;2074014;28;20201;-57
2023/06/04 09:35:18;;;;;;;5.25;2.78;;;;;;;24.04;41.76;96750.22;2074479;28;20247;-58
2023/06/04 09:36:20;;;;;;;7.90;2.67;;;;;;;22.67;42.11;96746.19;2074450;28;20190;-58
2023/06/04 09:37:24;;;;;;;7.32;2.80;;;;;;;23.28;41.96;96746.78;2075227;28;20761;-58
2023/06/04 09:38:35;;;;;;;6.32;2.30;;;;;;;23.91;42.12;96747.06;2072424;28;20651;-58
2023/06/04 09:39:37;;;;;;;7.53;2.20;;;;;;;24.12;41.86;96750.31;2072403;28;20202;-58
2023/06/04 09:40:39;;;;;;;3.72;2.25;;;;;;;24.43;41.40;96743.78;2069144;28;20226;-58
2023/06/04 09:41:40;;;;;;;10.77;2.80;;;;;;;24.57;40.48;96747.69;2069766;28;20251;-58
2023/06/04 09:42:54;;;;;;;7.28;2.22;;;;;;;24.74;40.52;96751.38;2069963;28;20205;-58
2023/06/04 09:44:03;;;;;;;8.65;3.05;;;;;;;24.92;39.64;96746.84;2072089;28;20225;-58
2023/06/04 09:45:06;;;;;;;10.30;3.00;;;;;;;24.68;40.06;96736.81;2071008;28;20206;-58
2023/06/04 09:46:10;;;;;;;11.68;2.80;;;;;;;24.80;40.57;96745.44;2073137;28;20202;-58
2023/06/04 09:47:12;;;;;;;12.80;2.72;;;;;;;23.12;40.52;96750.03;2073906;28;20841;-58
2023/06/04 09:48:23;;;;;;;4.95;2.50;;;;;;;24.11;41.29;96747.78;2074070;28;20258;-58
2023/06/04 09:49:25;;;;;;;4.47;2.40;;;;;;;24.26;40.99;96740.94;2079268;28;20190;-58
2023/06/04 09:50:30;;;;;;;7.45;2.90;;;;;;;24.19;40.46;96749.69;2072289;28;20218;-58
2023/06/04 09:51:33;;;;;;;4.97;2.42;;;;;;;23.91;40.65;96752.38;2074584;28;20254;-58
2023/06/04 09:52:36;;;;;;;4.45;2.45;;;;;;;24.42;40.95;96745.59;2076733;28;20201;-58
2023/06/04 09:53:38;;;;;;;10.93;2.35;;;;;;;24.89;39.90;96751.66;2077518;28;20251;-58
2023/06/04 09:54:41;;;;;;;5.90;2.63;;;;;;;25.01;39.15;96741.56;2069567;28;20546;-58
2023/06/04 09:55:43;;;;;;;11.00;2.45;;;;;;;25.08;39.14;96731.94;2071079;28;20594;-58
2023/06/04 09:56:45;;;;;;;4.40;2.30;;;;;;;25.25;39.42;96739.06;2073613;28;20251;-58
2023/06/04 09:57:48;;;;;;;5.88;2.80;;;;;;;25.31;38.88;96736.75;2077319;28;20193;-59
2023/06/04 09:58:55;;;;;;;5.35;2.15;;;;;;;24.73;39.84;96739.84;2076985;28;20201;-58
2023/06/04 09:59:57;;;;;;;7.70;2.65;;;;;;;25.26;40.18;96742.56;2073622;28;20301;-58
2023/06/04 10:01:01;;;;;;;6.07;2.25;;;;;;;24.78;40.33;96742.06;2071619;28;20220;-58
2023/06/04 10:02:03;;;;;;;4.53;2.33;;;;;;;25.19;39.68;96738.81;2075528;28;20636;-58
2023/06/04 10:03:10;;;;;;;6.97;3.08;;;;;;;25.51;39.05;96729.31;2075193;28;20770;-58
2023/06/04 10:04:13;;;;;;;5.63;2.72;;;;;;;25.07;37.97;96739.09;2072188;28;20194;-59
2023/06/04 10:05:15;;;;;;;5.95;2.67;;;;;;;23.33;40.32;96741.00;2071764;28;20202;-58
2023/06/04 10:06:20;;;;;;;5.03;2.63;;;;;;;23.30;41.17;96749.31;2073522;28;20205;-58
2023/06/04 10:07:23;;;;;;;8.60;3.20;;;;;;;24.14;40.14;96739.50;2074616;28;20656;-59
2023/06/04 10:08:26;;;;;;;12.38;2.67;;;;;;;24.35;39.64;96744.50;2073195;28;20194;-59
2023/06/04 10:09:28;;;;;;;12.05;4.25;;;;;;;23.99;40.64;96739.16;2071911;28;20277;-59
2023/06/04 10:10:35;;;;;;;13.82;7.45;;;;;;;24.26;41.08;96746.28;2069329;28;20225;-58
2023/06/04 10:11:46;;;;;;;21.02;13.25;;;;;;;24.89;41.11;96736.47;2073346;28;20216;-59
2023/06/04 10:13:02;;;;;;;19.65;13.77;;;;;;;25.41;40.04;96737.50;2069556;28;20744;-59
2023/06/04 10:14:12;;;;;;;7.85;3.22;;;;;;;25.69;39.25;96734.59;2067680;28;20288;-58
2023/06/04 10:15:14;;;;;;;14.07;2.80;;;;;;;25.97;38.80;96732.50;2065166;28;20232;-59
2023/06/04 10:16:16;;;;;;;4.00;2.35;;;;;;;26.27;38.47;96732.09;2065389;28;20205;-60
2023/06/04 10:17:35;;;;;;;6.43;3.08;;;;;;;25.90;37.07;96734.16;2067127;28;20673;-60
2023/06/04 10:18:38;;;;;;;9.07;2.72;;;;;;;25.96;38.30;96738.84;2066571;28;20581;-61
2023/06/04 10:19:43;;;;;;;4.47;2.38;;;;;;;25.57;37.93;96732.22;2066748;28;20239;-60
2023/06/04 10:20:45;;;;;;;10.77;2.60;;;;;;;25.72;38.80;96721.72;2066877;28;20252;-60
2023/06/04 10:21:47;;;;;;;3.88;2.70;;;;;;;24.42;38.98;96726.91;2068576;28;20205;-60
2023/06/04 10:22:49;;;;;;;3.95;2.63;;;;;;;23.89;40.02;96736.50;2068087;28;20213;-60
2023/06/04 10:23:50;;;;;;;6.78;2.70;;;;;;;24.94;40.09;96728.84;2068132;28;20201;-60
2023/06/04 10:24:52;;;;;;;9.90;2.65;;;;;;;23.33;38.99;96740.19;2064181;28;20195;-59
2023/06/04 10:25:54;;;;;;;7.00;2.75;;;;;;;23.98;40.65;96736.66;2067553;28;20218;-60
2023/06/04 10:26:59;;;;;;;5.68;2.90;;;;;;;24.32;40.47;96728.81;2068139;28;20289;-59
2023/06/04 10:28:01;;;;;;;11.50;3.00;;;;;;;24.37;37.78;96721.19;2068226;28;20617;-59
2023/06/04 10:29:03;;;;;;;6.97;2.30;;;;;;;24.29;38.45;96721.97;2066911;28;20194;-59
2023/06/04 10:30:05;;;;;;;7.32;3.33;;;;;;;24.18;38.77;96722.19;2065167;28;20198;-60
2023/06/04 10:31:08;;;;;;;5.65;3.25;;;;;;;24.92;39.07;96729.97;2067279;28;20902;-59
2023/06/04 10:32:10;;;;;;;5.70;2.33;;;;;;;25.77;38.80;96733.78;2065710;28;20210;-59
2023/06/04 10:33:14;;;;;;;7.60;3.30;;;;;;;24.54;37.78;96740.84;2069161;28;20305;-59
2023/06/04 10:34:19;;;;;;;18.50;4.05;;;;;;;25.30;37.43;96721.69;2066758;28;20220;-58
2023/06/04 10:35:34;;;;;;;8.25;3.95;;;;;;;23.46;38.48;96725.56;2064975;28;20237;-58
2023/06/04 10:36:45;;;;;;;7.90;3.08;;;;;;;23.30;40.78;96731.50;2067041;28;20204;-59
2023/06/04 10:37:47;;;;;;;7.25;3.40;;;;;;;24.49;39.54;96724.44;2067225;28;20725;-59
2023/06/04 10:38:51;;;;;;;8.50;3.17;;;;;;;23.95;38.19;96727.13;2068004;28;20220;-59
2023/06/04 10:39:57;;;;;;;8.82;2.60;;;;;;;23.50;39.53;96723.41;2068889;28;20198;-59
2023/06/04 10:40:59;;;;;;;9.93;3.25;;;;;;;24.67;39.45;96699.59;2067731;28;20371;-59
2023/06/04 10:42:05;;;;;;;14.73;2.90;;;;;;;25.73;38.06;96728.75;2066231;28;20850;-59
2023/06/04 10:43:09;;;;;;;5.97;3.10;;;;;;;26.20;37.28;96727.38;2065034;28;20332;-59
2023/06/04 10:44:12;;;;;;;3.88;2.90;;;;;;;26.63;36.92;96726.44;2067708;28;20355;-59
2023/06/04 10:45:14;;;;;;;3.53;1.90;;;;;;;25.48;36.69;96725.13;2066137;28;20294;-59
2023/06/04 10:46:18;;;;;;;4.47;2.30;;;;;;;25.53;36.73;96730.84;2067020;28;20294;-59
2023/06/04 10:47:25;;;;;;;5.15;2.72;;;;;;;25.69;36.01;96726.59;2067540;28;20552;-59
2023/06/04 10:48:27;;;;;;;7.75;3.15;;;;;;;25.64;37.05;96723.56;2066347;28;20237;-59
2023/06/04 10:49:30;;;;;;;8.02;3.22;;;;;;;25.49;37.11;96724.16;2066581;28;20190;-59
2023/06/04 10:50:33;;;;;;;5.78;2.83;;;;;;;26.20;36.50;96722.03;2066665;28;20226;-59
2023/06/04 10:51:38;;;;;;;9.73;3.25;;;;;;;26.32;36.43;96717.22;2067768;28;20204;-60
2023/06/04 10:52:52;;;;;;;7.47;3.17;;;;;;;26.41;35.60;96728.78;2068708;28;20206;-59
2023/06/04 10:53:54;;;;;;;15.38;3.60;;;;;;;26.96;36.33;96726.44;2067305;28;20228;-59
2023/06/04 10:55:03;;;;;;;6.05;3.15;;;;;;;26.67;35.31;96717.06;2067839;28;20289;-59
2023/06/04 10:56:05;;;;;;;10.00;3.38;;;;;;;25.50;36.29;96719.66;2065117;28;20282;-59
2023/06/04 10:57:12;;;;;;;9.77;3.40;;;;;;;26.19;36.13;96717.69;2065347;28;20293;-59
2023/06/04 10:58:14;;;;;;;5.72;3.15;;;;;;;26.21;35.06;96714.88;2067171;28;20212;-61
2023/06/04 10:59:17;;;;;;;5.63;3.22;;;;;;;24.31;37.99;96712.97;2066622;28;20247;-59
2023/06/04 11:00:19;;;;;;;6.40;2.63;;;;;;;23.90;38.96;96719.53;2067371;28;20202;-59
2023/06/04 11:01:31;;;;;;;5.70;3.08;;;;;;;24.53;37.70;96717.84;2067585;28;20332;-58
2023/06/04 11:02:33;;;;;;;8.82;2.63;;;;;;;24.60;37.80;96716.19;2067448;28;20305;-58
2023/06/04 11:03:38;;;;;;;8.82;3.22;;;;;;;23.90;38.52;96714.19;2067750;28;20530;-58
2023/06/04 11:04:40;;;;;;;5.25;2.90;;;;;;;23.03;39.00;96718.09;2066874;28;20672;-58
2023/06/04 11:05:43;;;;;;;7.22;3.25;;;;;;;23.82;39.12;96724.78;2065581;28;20230;-58
2023/06/04 11:06:45;;;;;;;10.32;3.40;;;;;;;23.65;39.48;96726.41;2066901;28;20813;-59
2023/06/04 11:07:48;;;;;;;6.70;3.35;;;;;;;24.77;38.07;96711.88;2066968;28;20207;-59
2023/06/04 11:08:49;;;;;;;7.03;3.20;;;;;;;25.22;36.62;96701.94;2067077;28;20385;-59
2023/06/04 11:09:52;;;;;;;7.78;3.72;;;;;;;23.91;38.17;96721.25;2066764;28;20289;-58
2023/06/04 11:10:53;;;;;;;10.95;3.65;;;;;;;22.69;39.22;96713.25;2066787;28;20225;-59
2023/06/04 11:12:01;;;;;;;9.60;3.88;;;;;;;22.83;39.62;96712.84;2065401;28;20201;-59
2023/06/04 11:13:04;;;;;;;6.63;3.08;;;;;;;23.38;40.08;96713.94;2065657;28;20642;-59
2023/06/04 11:14:12;;;;;;;8.27;3.78;;;;;;;24.48;39.21;96714.78;2065785;28;20202;-60
2023/06/04 11:15:16;;;;;;;5.65;3.13;;;;;;;25.56;37.95;96708.28;2065777;28;20693;-59
2023/06/04 11:16:20;;;;;;;12.82;2.78;;;;;;;26.31;37.31;96703.97;2066572;28;20581;-60
2023/06/04 11:17:21;;;;;;;8.10;3.13;;;;;;;26.17;36.70;96702.81;2067461;28;20202;-58
2023/06/04 11:18:23;;;;;;;8.00;2.50;;;;;;;26.84;36.10;96717.91;2065674;28;20205;-59
2023/06/04 11:19:35;;;;;;;7.45;2.60;;;;;;;27.16;36.12;96708.13;2067625;28;20565;-59
2023/06/04 11:20:37;;;;;;;9.13;3.40;;;;;;;27.51;35.82;96714.06;2066492;28;20253;-59
2023/06/04 11:21:38;;;;;;;5.40;2.47;;;;;;;26.66;35.58;96710.84;2063787;28;20202;-59
2023/06/04 11:22:40;;;;;;;5.38;2.35;;;;;;;26.98;36.13;96711.88;2064580;28;20218;-59
2023/06/04 11:23:42;;;;;;;5.45;2.88;;;;;;;27.25;35.49;96714.28;2066857;28;20256;-59
2023/06/04 11:24:44;;;;;;;16.55;2.95;;;;;;;27.33;34.91;96712.44;2065914;28;20635;-59
2023/06/04 11:25:45;;;;;;;5.40;2.78;;;;;;;27.70;35.67;96715.50;2063202;28;20706;-59
2023/06/04 11:26:47;;;;;;;10.32;3.58;;;;;;;27.46;34.50;96711.09;2064517;28;20201;-59
2023/06/04 11:28:07;;;;;;;7.38;2.78;;;;;;;27.34;35.12;96715.97;2067809;28;20202;-58
2023/06/04 11:29:11;;;;;;;7.85;3.55;;;;;;;27.94;34.81;96713.72;2068096;28;20248;-58
2023/06/04 11:30:14;;;;;;;7.05;2.67;;;;;;;28.23;33.65;96707.69;2064964;28;20239;-58
2023/06/04 11:31:15;;;;;;;13.38;2.80;;;;;;;28.42;33.43;96710.91;2067059;28;20344;-59
2023/06/04 11:32:24;;;;;;;4.03;3.00;;;;;;;28.08;33.91;96715.66;2063545;28;20218;-59
2023/06/04 11:33:26;;;;;;;10.40;2.60;;;;;;;27.98;33.35;96710.47;2069015;28;20202;-59
2023/06/04 11:34:29;;;;;;;6.60;2.30;;;;;;;28.58;33.21;96715.31;2067565;28;20194;-60
2023/06/04 11:35:41;;;;;;;7.32;3.20;;;;;;;28.85;33.28;96711.25;2062820;28;20218;-59
2023/06/04 11:36:42;;;;;;;7.53;2.47;;;;;;;28.52;34.01;96706.97;2066848;28;20235;-58
2023/06/04 11:37:54;;;;;;;7.13;2.53;;;;;;;29.00;33.73;96711.25;2066435;28;20818;-58
2023/06/04 11:39:01;;;;;;;9.20;2.92;;;;;;;29.00;33.31;96704.03;2066474;28;20237;-58
2023/06/04 11:40:24;;;;;;;4.93;2.17;;;;;;;29.14;33.50;96707.75;2066786;28;20228;-59
2023/06/04 11:41:32;;;;;;;5.80;2.93;;;;;;;28.06;33.66;96712.34;2063723;28;20228;-58
2023/06/04 11:42:36;;;;;;;6.53;2.27;;;;;;;28.68;33.39;96702.50;2067501;28;20431;-59
2023/06/04 11:43:39;;;;;;;5.33;2.57;;;;;;;29.00;32.92;96713.94;2067375;28;20523;-59
2023/06/04 11:44:45;;;;;;;6.07;2.63;;;;;;;29.42;32.96;96703.59;2065131;28;20443;-58
2023/06/04 11:45:46;;;;;;;2.97;2.27;;;;;;;29.54;32.53;96718.25;2066674;28;20476;-59
2023/06/04 11:46:48;;;;;;;4.80;2.60;;;;;;;29.61;32.30;96712.94;2067888;28;20436;-59
2023/06/04 11:47:53;;;;;;;6.77;2.77;;;;;;;29.63;32.39;96708.22;2067230;28;20427;-59
2023/06/04 11:48:55;;;;;;;6.47;2.47;;;;;;;29.48;31.86;96703.72;2065501;28;20430;-58
2023/06/04 11:49:58;;;;;;;4.32;2.20;;;;;;;29.27;32.75;96701.72;2063658;28;20439;-59
2023/06/04 11:51:05;;;;;;;8.73;2.67;;;;;;;29.48;32.21;96710.94;2064467;28;20775;-58
2023/06/04 11:52:07;;;;;;;3.60;2.67;;;;;;;29.55;33.09;96716.41;2066197;28;20550;-58
2023/06/04 11:53:09;;;;;;;5.93;2.97;;;;;;;29.31;32.72;96697.69;2070694;28;20534;-58
2023/06/04 11:54:11;;;;;;;3.40;2.10;;;;;;;29.15;33.13;96716.66;2071218;28;20431;-58
2023/06/04 11:55:13;;;;;;;8.70;2.63;;;;;;;29.05;33.37;96714.25;2066632;28;20780;-59
2023/06/04 11:56:15;;;;;;;4.60;2.90;;;;;;;28.94;32.86;96712.00;2067281;28;20456;-58
2023/06/04 11:57:17;;;;;;;3.87;2.50;;;;;;;29.26;32.35;96708.13;2066154;28;20569;-58
2023/06/04 11:58:19;;;;;;;21.67;9.90;;;;;;;29.65;32.78;96714.28;2068211;28;20772;-58
2023/06/04 11:59:21;;;;;;;13.83;9.70;;;;;;;29.97;32.42;96713.00;2069465;28;20959;-58
2023/06/04 12:00:23;;;;;;;9.80;4.00;;;;;;;29.85;31.96;96709.09;2067446;28;20459;-58
2023/06/04 12:01:28;;;;;;;4.30;2.77;;;;;;;29.55;31.76;96709.16;2066618;28;20463;-58
2023/06/04 12:02:30;;;;;;;5.10;1.97;;;;;;;29.71;31.85;96718.06;2062866;28;20432;-59
2023/06/04 12:03:37;;;;;;;12.20;3.30;;;;;;;29.71;31.39;96708.16;2064812;28;20982;-59
2023/06/04 12:04:39;;;;;;;9.53;3.33;;;;;;;29.23;32.51;96707.66;2068146;28;20443;-59
2023/06/04 12:05:40;;;;;;;15.83;2.87;;;;;;;29.86;31.91;96704.56;2062685;28;20467;-59
2023/06/04 12:06:57;;;;;;;9.73;2.60;;;;;;;30.15;32.45;96713.63;2065032;28;20502;-58
2023/06/04 12:08:08;;;;;;;7.37;2.73;;;;;;;29.86;32.41;96708.09;2063429;28;21112;-59
2023/06/04 12:09:23;;;;;;;12.67;2.80;;;;;;;29.83;31.39;96705.78;2065810;28;20726;-59
2023/06/04 12:10:26;;;;;;;6.20;2.13;;;;;;;29.91;31.18;96703.00;2065740;28;21090;-59
2023/06/04 12:11:31;;;;;;;10.50;2.83;;;;;;;30.32;31.33;96704.25;2065139;28;20856;-59
2023/06/04 12:12:33;;;;;;;5.43;2.90;;;;;;;30.28;30.95;96703.84;2066853;28;20450;-59
2023/06/04 12:13:37;;;;;;;6.50;2.30;;;;;;;28.48;32.27;96689.53;2068320;28;20504;-59
2023/06/04 12:14:39;;;;;;;6.33;3.00;;;;;;;29.24;31.82;96696.75;2066977;28;20477;-58
2023/06/04 12:15:41;;;;;;;7.30;2.37;;;;;;;29.27;31.82;96692.84;2062944;28;21202;-59
2023/06/04 12:16:42;;;;;;;7.13;2.50;;;;;;;29.51;32.24;96696.28;2064378;28;21042;-59
2023/06/04 12:17:51;;;;;;;5.53;2.73;;;;;;;29.93;32.00;96700.16;2065916;28;20444;-59
2023/06/04 12:19:11;;;;;;;5.80;2.83;;;;;;;29.95;31.32;96692.69;2066599;28;20438;-58
2023/06/04 12:20:12;;;;;;;8.37;2.30;;;;;;;29.77;30.79;96685.03;2066868;28;20520;-59
2023/06/04 12:21:27;;;;;;;4.60;2.27;;;;;;;29.92;31.06;96682.31;2066107;28;20467;-59
2023/06/04 12:22:30;;;;;;;5.33;1.70;;;;;;;30.10;30.92;96695.34;2067646;28;20457;-59
2023/06/04 12:23:31;;;;;;;7.30;3.00;;;;;;;30.29;31.30;96691.19;2066282;28;20471;-59
2023/06/04 12:24:45;;;;;;;5.80;2.57;;;;;;;30.42;30.57;96688.63;2076286;28;21230;-59
2023/06/04 12:25:50;;;;;;;8.10;3.07;;;;;;;30.25;30.60;96685.34;2071621;28;20570;-59
2023/06/04 12:27:08;;;;;;;5.50;2.30;;;;;;;30.45;29.31;96682.03;2066956;28;20996;-60
2023/06/04 12:28:17;;;;;;;5.70;2.47;;;;;;;29.94;30.96;96685.66;2067154;28;20847;-60
2023/06/04 12:29:19;;;;;;;4.40;2.43;;;;;;;29.71;30.87;96685.78;2066453;28;20511;-60
2023/06/04 12:30:22;;;;;;;6.13;2.40;;;;;;;28.47;30.94;96687.03;2066717;28;20462;-60
2023/06/04 12:31:23;;;;;;;5.10;3.43;;;;;;;26.22;33.21;96689.75;2066887;28;20420;-60
2023/06/04 12:32:26;;;;;;;5.20;2.80;;;;;;;25.77;34.61;96683.81;2067197;28;20793;-60
2023/06/04 12:33:27;;;;;;;5.40;2.80;;;;;;;26.96;34.32;96680.91;2066883;28;20442;-60
2023/06/04 12:34:29;;;;;;;6.73;2.77;;;;;;;28.40;33.29;96694.16;2063377;28;21182;-60
2023/06/04 12:35:31;;;;;;;8.10;3.40;;;;;;;28.41;32.81;96693.97;2064556;28;20483;-60
2023/06/04 12:36:33;;;;;;;4.57;2.40;;;;;;;28.22;32.72;96689.91;2066606;28;20605;-60
2023/06/04 12:37:35;;;;;;;4.88;2.15;;;;;;;27.91;33.17;96687.22;2066136;28;20455;-60
2023/06/04 12:38:36;;;;;;;4.60;1.95;;;;;;;28.13;33.39;96683.75;2065494;28;20277;-60
2023/06/04 12:39:38;;;;;;;7.23;2.80;;;;;;;28.05;33.62;96677.59;2066813;28;20201;-60
2023/06/04 12:40:40;;;;;;;5.55;2.70;;;;;;;27.52;33.92;96686.25;2066006;28;21120;-60
2023/06/04 12:41:45;;;;;;;9.45;3.20;;;;;;;27.02;33.63;96680.19;2067017;28;20202;-60
2023/06/04 12:42:50;;;;;;;4.57;2.03;;;;;;;27.56;33.74;96679.53;2070167;28;20292;-60
2023/06/04 12:43:52;;;;;;;5.68;2.20;;;;;;;28.58;33.71;96689.31;2070242;28;20249;-60
2023/06/04 12:44:53;;;;;;;4.43;2.60;;;;;;;28.09;32.75;96697.72;2066271;28;20213;-60
2023/06/04 12:45:55;;;;;;;7.50;2.58;;;;;;;27.86;33.32;96691.28;2065940;28;20460;-60
2023/06/04 12:46:56;;;;;;;5.75;2.22;;;;;;;27.76;32.95;96695.22;2066409;28;20224;-60
2023/06/04 12:47:58;;;;;;;3.70;2.65;;;;;;;28.26;32.62;96691.22;2065435;28;20193;-59
2023/06/04 12:48:59;;;;;;;10.55;3.10;;;;;;;28.59;32.28;96682.06;2066591;28;20255;-60
2023/06/04 12:50:01;;;;;;;6.35;2.88;;;;;;;28.36;31.90;96688.28;2062948;28;20209;-60
2023/06/04 12:51:02;;;;;;;7.17;2.60;;;;;;;28.96;32.39;96693.84;2063694;28;20202;-60
2023/06/04 12:52:04;;;;;;;4.53;2.70;;;;;;;29.38;31.82;96689.72;2063417;28;20439;-61
2023/06/04 12:53:06;;;;;;;9.70;2.97;;;;;;;29.63;30.88;96687.53;2065593;28;20427;-60
2023/06/04 12:54:07;;;;;;;9.50;2.43;;;;;;;29.34;31.31;96693.78;2066716;28;20538;-60
2023/06/04 12:55:09;;;;;;;4.33;2.30;;;;;;;29.92;31.25;96693.09;2066644;28;21369;-60
2023/06/04 12:56:11;;;;;;;3.60;2.30;;;;;;;30.15;30.80;96692.91;2066678;28;20475;-60
2023/06/04 12:57:12;;;;;;;5.20;2.40;;;;;;;30.29;30.62;96689.31;2066966;28;20431;-59
2023/06/04 12:58:14;;;;;;;3.70;2.40;;;;;;;29.71;31.11;96683.94;2063290;28;20428;-59
2023/06/04 12:59:15;;;;;;;5.33;2.57;;;;;;;29.98;31.05;96689.66;2064607;28;20501;-59
2023/06/04 13:00:17;;;;;;;4.13;2.20;;;;;;;30.27;30.94;96677.06;2060904;28;20935;-59
2023/06/04 13:01:18;;;;;;;11.43;2.93;;;;;;;30.32;30.67;96687.28;2063585;28;20827;-59
2023/06/04 13:02:21;;;;;;;10.20;2.53;;;;;;;30.30;30.26;96682.09;2066113;28;20790;-59
2023/06/04 13:03:22;;;;;;;5.73;2.37;;;;;;;30.77;29.85;96680.66;2063303;28;20432;-59
2023/06/04 13:04:24;;;;;;;6.40;2.90;;;;;;;30.36;30.06;96677.78;2064036;28;20443;-61
2023/06/04 13:05:26;;;;;;;4.70;2.53;;;;;;;30.83;29.76;96680.91;2073346;28;20459;-61
2023/06/04 13:06:27;;;;;;;9.67;4.90;;;;;;;30.65;30.09;96674.13;2071481;28;20434;-61
2023/06/04 13:07:29;;;;;;;34.03;21.57;;;;;;;31.01;29.95;96677.69;2066653;28;20435;-61
2023/06/04 13:08:31;;;;;;;51.87;32.47;;;;;;;31.31;29.88;96680.19;2065645;28;20432;-61
2023/06/04 13:09:34;;;;;;;8.20;4.80;;;;;;;31.13;29.20;96672.63;2066923;28;20450;-61
2023/06/04 13:10:36;;;;;;;91.17;42.27;;;;;;;31.22;29.90;96679.53;2065521;28;20855;-61
2023/06/04 13:11:39;;;;;;;45.20;17.07;;;;;;;30.91;29.94;96680.75;2065106;28;20767;-61
2023/06/04 13:12:40;;;;;;;47.47;27.60;;;;;;;31.11;30.26;96675.53;2067609;28;21130;-61
2023/06/04 13:13:42;;;;;;;74.23;39.40;;;;;;;31.27;29.84;96677.06;2064866;28;20424;-61
2023/06/04 13:14:43;;;;;;;125.07;68.53;;;;;;;31.12;28.60;96673.66;2063156;28;20425;-61
2023/06/04 13:15:45;;;;;;;15.97;9.47;;;;;;;28.95;30.97;96671.50;2063289;28;20587;-61